Time;durP1;ratioP1;P1;durP2;ratioP2;P2;SDS_P1;SDS_P2;PMS_P1;PMS_P2;Temp;Humidity;BMP_temperature;BMP_pressure;BME280_temperature;BME280_humidity;BME280_pressure;Samples;Min_cycle;Max_cycle;Signal;HPM_P1;HPM_P2
2022/07/08 00:01:28;;;;;;;2.63;1.30;;;;;;;;;;4994181;28;20384;-82
2022/07/08 00:03:54;;;;;;;1.90;1.20;;;;;;;;;;4995404;28;20022;-83
2022/07/08 00:06:20;;;;;;;2.95;1.25;;;;;;;;;;4994296;28;20077;-80
2022/07/08 00:08:47;;;;;;;3.22;1.50;;;;;;;;;;4993738;28;20391;-83
2022/07/08 00:11:13;;;;;;;1.70;1.20;;;;;;;;;;4994278;28;20057;-78
2022/07/08 00:13:39;;;;;;;2.10;1.20;;;;;;;;;;4995079;28;20056;-77
2022/07/08 00:16:05;;;;;;;2.08;1.30;;;;;;;;;;4996480;28;20026;-78
2022/07/08 00:18:35;;;;;;;2.20;1.30;;;;;;;;;;4993803;28;20071;-77
2022/07/08 00:21:01;;;;;;;3.58;1.80;;;;;;;;;;4995611;28;20031;-83
2022/07/08 00:23:27;;;;;;;2.30;1.33;;;;;;;;;;4994236;28;20877;-77
2022/07/08 00:25:53;;;;;;;2.33;1.50;;;;;;;;;;4994363;28;20030;-83
2022/07/08 00:28:19;;;;;;;2.30;1.73;;;;;;;;;;4993940;28;20132;-77
2022/07/08 00:30:45;;;;;;;1.88;1.30;;;;;;;;;;4994130;28;20022;-77
2022/07/08 00:33:12;;;;;;;2.08;1.27;;;;;;;;;;4993341;28;20057;-80
2022/07/08 00:35:38;;;;;;;2.85;1.40;;;;;;;;;;4995043;28;20134;-83
2022/07/08 00:38:04;;;;;;;2.90;1.48;;;;;;;;;;4994544;28;20037;-77
2022/07/08 00:40:31;;;;;;;3.10;1.50;;;;;;;;;;4993584;28;20391;-78
2022/07/08 00:42:57;;;;;;;3.72;1.80;;;;;;;;;;4995667;28;20023;-77
2022/07/08 00:45:23;;;;;;;2.75;1.65;;;;;;;;;;4993597;28;20038;-83
2022/07/08 00:47:49;;;;;;;4.72;1.75;;;;;;;;;;4993397;28;20514;-78
2022/07/08 00:50:15;;;;;;;2.92;1.80;;;;;;;;;;4995136;28;20105;-83
2022/07/08 00:52:42;;;;;;;2.47;1.60;;;;;;;;;;4993848;28;20027;-77
2022/07/08 00:55:08;;;;;;;2.20;1.52;;;;;;;;;;4995066;28;20380;-83
2022/07/08 00:57:36;;;;;;;2.65;2.05;;;;;;;;;;4993852;28;20087;-77
2022/07/08 01:00:02;;;;;;;2.35;1.60;;;;;;;;;;4993256;28;20050;-78
2022/07/08 01:02:28;;;;;;;3.92;1.70;;;;;;;;;;4994595;28;20054;-78
2022/07/08 01:04:55;;;;;;;2.60;1.70;;;;;;;;;;4993064;28;20121;-78
2022/07/08 01:07:23;;;;;;;3.25;1.63;;;;;;;;;;4993152;28;20037;-83
2022/07/08 01:09:51;;;;;;;2.75;1.70;;;;;;;;;;4992965;28;20165;-77
2022/07/08 01:12:18;;;;;;;2.92;1.70;;;;;;;;;;4994560;28;20031;-82
2022/07/08 01:14:44;;;;;;;2.10;1.52;;;;;;;;;;4993158;28;20030;-77
2022/07/08 01:17:10;;;;;;;3.40;2.03;;;;;;;;;;4993206;28;20026;-77
2022/07/08 01:19:37;;;;;;;2.88;1.90;;;;;;;;;;4993054;28;20069;-83
2022/07/08 01:22:03;;;;;;;3.40;1.95;;;;;;;;;;4993648;28;20026;-77
2022/07/08 01:24:29;;;;;;;2.70;1.70;;;;;;;;;;4993905;28;20483;-83
2022/07/08 01:26:56;;;;;;;2.33;1.90;;;;;;;;;;4994202;28;20029;-77
2022/07/08 01:29:22;;;;;;;2.90;2.00;;;;;;;;;;4993273;28;20035;-81
2022/07/08 01:31:52;;;;;;;2.47;1.95;;;;;;;;;;4994859;28;20130;-83
2022/07/08 01:34:18;;;;;;;3.38;2.50;;;;;;;;;;4992807;28;20502;-77
2022/07/08 01:36:44;;;;;;;2.72;2.13;;;;;;;;;;4994327;28;20034;-83
2022/07/08 01:39:10;;;;;;;3.03;2.10;;;;;;;;;;4992616;28;20072;-78
2022/07/08 01:41:37;;;;;;;2.75;2.08;;;;;;;;;;4992610;28;20490;-81
2022/07/08 01:44:03;;;;;;;3.50;2.28;;;;;;;;;;4993130;28;20033;-78
2022/07/08 01:46:29;;;;;;;3.55;2.40;;;;;;;;;;4992732;28;20026;-83
2022/07/08 01:48:55;;;;;;;3.03;2.15;;;;;;;;;;4992737;28;20118;-78
2022/07/08 01:51:21;;;;;;;3.80;2.65;;;;;;;;;;4993897;28;20073;-83
2022/07/08 01:53:51;;;;;;;3.42;2.15;;;;;;;;;;4992613;28;20054;-83
2022/07/08 01:56:17;;;;;;;4.22;2.42;;;;;;;;;;4993990;28;20022;-82
2022/07/08 01:58:43;;;;;;;2.97;2.28;;;;;;;;;;4993028;28;20473;-78
2022/07/08 02:01:09;;;;;;;3.08;2.45;;;;;;;;;;4993061;28;20030;-78
2022/07/08 02:03:36;;;;;;;3.08;2.25;;;;;;;;;;4992871;28;20034;-83
2022/07/08 02:06:02;;;;;;;4.95;2.50;;;;;;;;;;4993107;28;20491;-78
2022/07/08 02:08:28;;;;;;;3.13;2.42;;;;;;;;;;4992795;28;20125;-79
2022/07/08 02:13:39;;;;;;;3.08;2.47;;;;;;;;;;4997461;28;20045;-77
2022/07/08 02:16:05;;;;;;;4.68;2.30;;;;;;;;;;4996252;28;20026;-78
2022/07/08 02:18:31;;;;;;;3.85;2.70;;;;;;;;;;4997590;28;20027;-83
2022/07/08 02:20:58;;;;;;;3.78;3.05;;;;;;;;;;4996842;28;20128;-80
2022/07/08 02:23:24;;;;;;;3.50;2.80;;;;;;;;;;4997894;28;20101;-77
2022/07/08 02:25:50;;;;;;;3.95;2.50;;;;;;;;;;4997729;28;20049;-77
2022/07/08 02:28:16;;;;;;;5.10;2.95;;;;;;;;;;4996405;28;20038;-77
2022/07/08 02:30:42;;;;;;;2.85;2.40;;;;;;;;;;4996217;28;20030;-77
2022/07/08 02:33:08;;;;;;;3.13;2.50;;;;;;;;;;4996950;28;20050;-80
2022/07/08 02:35:35;;;;;;;3.60;2.60;;;;;;;;;;4996313;28;20038;-81
2022/07/08 02:38:01;;;;;;;4.40;2.45;;;;;;;;;;4996122;28;20484;-77
2022/07/08 02:40:27;;;;;;;2.97;2.40;;;;;;;;;;4995637;28;20026;-77
2022/07/08 02:42:53;;;;;;;3.42;2.47;;;;;;;;;;4995464;28;20026;-83
2022/07/08 02:45:19;;;;;;;3.35;2.60;;;;;;;;;;4995577;28;20037;-82
2022/07/08 02:47:45;;;;;;;4.53;2.50;;;;;;;;;;4998020;28;20030;-83
2022/07/08 02:50:12;;;;;;;4.22;2.42;;;;;;;;;;4995500;28;20420;-77
2022/07/08 02:52:38;;;;;;;3.63;2.20;;;;;;;;;;4996961;28;20034;-82
2022/07/08 02:55:04;;;;;;;3.30;2.30;;;;;;;;;;4995716;28;20065;-77
2022/07/08 02:57:31;;;;;;;3.72;2.45;;;;;;;;;;4995915;28;20022;-78
2022/07/08 02:59:57;;;;;;;4.57;2.33;;;;;;;;;;4997119;28;20467;-84
2022/07/08 03:02:23;;;;;;;4.47;2.70;;;;;;;;;;4995792;28;20106;-84
2022/07/08 03:04:49;;;;;;;2.90;2.28;;;;;;;;;;4996092;28;20506;-81
2022/07/08 03:07:16;;;;;;;3.33;2.40;;;;;;;;;;4995697;28;20062;-82
2022/07/08 03:09:42;;;;;;;4.10;2.40;;;;;;;;;;4995107;28;20038;-82
2022/07/08 03:12:08;;;;;;;3.47;2.45;;;;;;;;;;4995524;28;20109;-82
2022/07/08 03:14:34;;;;;;;4.15;2.60;;;;;;;;;;4994920;28;20479;-83
2022/07/08 03:17:00;;;;;;;4.25;2.50;;;;;;;;;;4995047;28;20034;-77
2022/07/08 03:19:26;;;;;;;3.28;2.80;;;;;;;;;;4995882;28;20027;-82
2022/07/08 03:21:53;;;;;;;3.42;2.83;;;;;;;;;;4994948;28;20023;-77
2022/07/08 03:24:19;;;;;;;4.75;2.83;;;;;;;;;;4995119;28;20031;-77
2022/07/08 03:26:45;;;;;;;4.18;2.65;;;;;;;;;;4995717;28;20126;-78
2022/07/08 03:29:11;;;;;;;3.65;3.13;;;;;;;;;;4994672;28;20034;-80
2022/07/08 03:31:37;;;;;;;3.80;3.17;;;;;;;;;;4994938;28;20439;-82
2022/07/08 03:34:04;;;;;;;4.22;3.30;;;;;;;;;;4996482;28;20023;-83
2022/07/08 03:36:30;;;;;;;4.43;3.22;;;;;;;;;;4995318;28;20502;-83
2022/07/08 03:38:56;;;;;;;3.95;3.13;;;;;;;;;;4996042;28;20030;-78
2022/07/08 03:41:23;;;;;;;4.65;3.22;;;;;;;;;;4994948;28;20475;-83
2022/07/08 03:43:52;;;;;;;3.30;2.85;;;;;;;;;;4994109;28;20064;-78
2022/07/08 03:46:19;;;;;;;3.50;2.85;;;;;;;;;;4995720;28;20023;-83
2022/07/08 03:48:45;;;;;;;5.70;3.10;;;;;;;;;;4994800;28;20080;-77
2022/07/08 03:51:11;;;;;;;3.35;2.78;;;;;;;;;;4995817;28;20030;-81
2022/07/08 03:53:37;;;;;;;3.22;2.92;;;;;;;;;;4994233;28;20030;-77
2022/07/08 03:56:05;;;;;;;3.35;3.05;;;;;;;;;;4996137;28;20108;-82
2022/07/08 03:58:31;;;;;;;3.97;3.08;;;;;;;;;;4996385;28;20062;-77
2022/07/08 04:00:58;;;;;;;4.57;3.20;;;;;;;;;;4994662;28;20057;-80
2022/07/08 04:03:24;;;;;;;5.43;3.33;;;;;;;;;;4994632;28;20049;-77
2022/07/08 04:05:50;;;;;;;3.60;3.08;;;;;;;;;;4995098;28;20026;-84
2022/07/08 04:08:16;;;;;;;3.67;3.20;;;;;;;;;;4994613;28;20042;-81
2022/07/08 04:10:42;;;;;;;5.38;3.50;;;;;;;;;;4994049;28;20030;-84
2022/07/08 04:13:09;;;;;;;5.13;3.42;;;;;;;;;;4994156;28;20034;-77
2022/07/08 04:15:35;;;;;;;3.53;3.00;;;;;;;;;;4993614;28;20026;-83
2022/07/08 04:18:01;;;;;;;3.97;3.15;;;;;;;;;;4996229;28;20033;-84
2022/07/08 04:20:28;;;;;;;5.18;2.90;;;;;;;;;;4993869;28;20034;-79
2022/07/08 04:22:54;;;;;;;5.40;3.28;;;;;;;;;;4994119;28;20033;-83
2022/07/08 04:25:20;;;;;;;4.43;3.10;;;;;;;;;;4994962;28;20117;-76
2022/07/08 04:27:46;;;;;;;3.95;3.20;;;;;;;;;;4993910;28;20097;-77
2022/07/08 04:30:12;;;;;;;4.10;3.30;;;;;;;;;;4995447;28;20039;-84
2022/07/08 04:32:39;;;;;;;5.03;3.30;;;;;;;;;;4994198;28;20050;-77
2022/07/08 04:35:05;;;;;;;3.75;3.13;;;;;;;;;;4993356;28;20030;-77
2022/07/08 04:37:31;;;;;;;3.97;3.15;;;;;;;;;;4995366;28;20026;-83
2022/07/08 04:40:01;;;;;;;5.15;3.05;;;;;;;;;;4993508;28;20037;-77
2022/07/08 04:42:27;;;;;;;4.95;2.90;;;;;;;;;;4995607;28;20045;-83
2022/07/08 04:44:53;;;;;;;5.32;3.17;;;;;;;;;;4993238;28;20034;-77
2022/07/08 04:47:19;;;;;;;4.03;2.95;;;;;;;;;;4993676;28;20026;-77
2022/07/08 04:49:45;;;;;;;3.80;2.83;;;;;;;;;;4995268;28;20046;-80
2022/07/08 04:52:12;;;;;;;4.80;2.60;;;;;;;;;;4993879;28;20104;-81
2022/07/08 04:54:38;;;;;;;6.28;2.95;;;;;;;;;;4993151;28;20042;-77
2022/07/08 04:57:07;;;;;;;4.20;3.05;;;;;;;;;;4994901;28;20440;-84
2022/07/08 04:59:34;;;;;;;3.30;2.63;;;;;;;;;;4993289;28;20372;-77
2022/07/08 05:02:04;;;;;;;5.57;2.80;;;;;;;;;;4996602;28;20085;-81
2022/07/08 05:04:32;;;;;;;4.78;2.65;;;;;;;;;;4983353;28;20054;-76
2022/07/08 05:06:58;;;;;;;2.83;2.30;;;;;;;;;;4997842;28;20073;-75
2022/07/08 05:09:32;;;;;;;4.40;2.45;;;;;;;;;;4998123;28;20045;-77
2022/07/08 05:11:58;;;;;;;3.35;1.80;;;;;;;;;;5000807;28;20146;-83
2022/07/08 05:14:38;;;;;;;2.40;2.13;;;;;;;;;;4993829;28;20023;-83
2022/07/08 05:17:07;;;;;;;2.70;2.00;;;;;;;;;;4993458;28;20030;-82
2022/07/08 05:19:33;;;;;;;2.95;1.90;;;;;;;;;;4993292;28;20080;-82
2022/07/08 05:21:59;;;;;;;4.28;2.25;;;;;;;;;;4992490;28;20026;-80
2022/07/08 05:24:26;;;;;;;2.72;1.90;;;;;;;;;;4993835;28;20472;-75
2022/07/08 05:26:54;;;;;;;3.38;2.20;;;;;;;;;;4993545;28;20118;-75
2022/07/08 05:29:20;;;;;;;4.60;2.00;;;;;;;;;;5012338;28;20038;-77
2022/07/08 05:31:46;;;;;;;2.63;1.75;;;;;;;;;;5011942;28;20384;-77
2022/07/08 05:34:13;;;;;;;3.72;1.83;;;;;;;;;;5013792;28;20057;-75
2022/07/08 05:36:39;;;;;;;2.55;1.70;;;;;;;;;;5012144;28;20032;-77
2022/07/08 05:39:05;;;;;;;3.10;1.58;;;;;;;;;;5012625;28;20105;-78
2022/07/08 05:41:31;;;;;;;6.40;1.73;;;;;;;;;;5012409;28;20026;-78
2022/07/08 05:43:57;;;;;;;2.50;1.70;;;;;;;;;;5012678;28;20410;-80
2022/07/08 05:46:23;;;;;;;2.90;1.60;;;;;;;;;;5015575;28;20029;-81
2022/07/08 05:48:49;;;;;;;2.78;1.70;;;;;;;;;;5016183;28;20240;-77
2022/07/08 05:51:15;;;;;;;3.28;1.80;;;;;;;;;;5015734;28;20030;-77
2022/07/08 05:53:42;;;;;;;4.13;1.92;;;;;;;;;;5016756;28;20084;-79
2022/07/08 05:56:08;;;;;;;2.95;1.70;;;;;;;;;;5015554;28;20387;-81
2022/07/08 05:58:34;;;;;;;3.17;1.65;;;;;;;;;;5015527;28;20081;-76
2022/07/08 06:01:01;;;;;;;3.55;1.70;;;;;;;;;;5015894;28;20030;-78
2022/07/08 06:03:28;;;;;;;4.72;1.80;;;;;;;;;;5014002;28;20022;-75
2022/07/08 06:05:54;;;;;;;4.35;1.60;;;;;;;;;;4996407;28;20053;-76
2022/07/08 06:08:20;;;;;;;3.15;1.42;;;;;;;;;;4996385;28;20088;-77
2022/07/08 06:10:46;;;;;;;3.05;1.42;;;;;;;;;;4996194;28;20027;-76
2022/07/08 06:13:13;;;;;;;3.17;1.70;;;;;;;;;;4996990;28;20464;-78
2022/07/08 06:15:39;;;;;;;5.45;1.50;;;;;;;;;;4995877;28;20033;-78
2022/07/08 06:18:05;;;;;;;5.20;1.52;;;;;;;;;;4995679;28;20387;-78
2022/07/08 06:20:32;;;;;;;3.90;1.70;;;;;;;;;;4995862;28;20077;-77
2022/07/08 06:22:58;;;;;;;3.65;1.40;;;;;;;;;;4995462;28;20065;-78
2022/07/08 06:25:24;;;;;;;3.90;1.55;;;;;;;;;;4996270;28;20030;-78
2022/07/08 06:27:50;;;;;;;6.05;1.40;;;;;;;;;;4996952;28;20026;-74
2022/07/08 06:30:17;;;;;;;3.03;1.40;;;;;;;;;;4996501;28;20030;-77
2022/07/08 06:32:43;;;;;;;3.72;1.33;;;;;;;;;;4997314;28;20051;-77
2022/07/08 06:35:10;;;;;;;8.77;1.85;;;;;;;;;;4996693;28;20113;-77
2022/07/08 06:37:37;;;;;;;2.88;1.70;;;;;;;;;;4996081;28;20034;-77
2022/07/08 06:40:03;;;;;;;3.70;1.50;;;;;;;;;;4996967;28;20038;-78
2022/07/08 06:42:29;;;;;;;3.47;1.70;;;;;;;;;;4995749;28;20113;-79
2022/07/08 06:44:55;;;;;;;3.33;1.60;;;;;;;;;;4995289;28;20034;-78
2022/07/08 06:47:22;;;;;;;2.92;1.50;;;;;;;;;;4996164;28;20045;-78
2022/07/08 06:49:49;;;;;;;2.60;1.40;;;;;;;;;;4994802;28;20058;-78
2022/07/08 06:52:15;;;;;;;3.85;1.52;;;;;;;;;;4994837;28;20037;-77
2022/07/08 06:54:42;;;;;;;3.20;1.60;;;;;;;;;;4996223;28;20026;-74
2022/07/08 06:57:08;;;;;;;19.05;2.97;;;;;;;;;;4994405;28;20026;-79
2022/07/08 06:59:35;;;;;;;2.92;1.73;;;;;;;;;;4995192;28;20390;-77
2022/07/08 07:02:01;;;;;;;2.40;1.42;;;;;;;;;;4996282;28;20022;-93
2022/07/08 07:04:31;;;;;;;3.75;1.80;;;;;;;;;;4998438;28;20530;-93
2022/07/08 07:06:58;;;;;;;2.55;1.75;;;;;;;;;;5000849;28;20022;-95
2022/07/08 07:15:56;;;;;;;3.05;1.70;;;;;;;;;;4987635;28;20038;-90
2022/07/08 07:18:49;;;;;;;;;;;;;;;;;;;;;
2022/07/08 07:21:33;;;;;;;3.35;1.65;;;;;;;;;;4958404;28;20119;-92
2022/07/08 07:24:28;;;;;;;4.10;1.80;;;;;;;;;;5303291;23;20064;-90
2022/07/08 07:31:58;;;;;;;2.92;1.80;;;;;;;;;;5223260;22;20545;-90
2022/07/08 08:11:13;;;;;;;3.10;1.15;;;;;;;;;;5700077;22;20119;-93
2022/07/08 08:13:44;;;;;;;2.33;1.30;;;;;;;;;;5110752;23;20093;-93
2022/07/08 08:31:51;;;;;;;2.63;0.82;;;;;;;;;;5821926;23;20024;31
2022/07/08 08:40:33;;;;;;;3.88;1.23;;;;;;;;;;4952820;29;20050;-90
2022/07/08 08:43:47;;;;;;;4.10;1.55;;;;;;;;;;4952313;29;20031;-90
2022/07/08 08:47:16;;;;;;;3.95;1.10;;;;;;;;;;4955380;29;20019;-92
2022/07/08 08:49:52;;;;;;;2.58;1.30;;;;;;;;;;4942006;29;20056;-90
2022/07/08 08:55:28;;;;;;;2.75;1.17;;;;;;;;;;5033249;28;20083;-90
2022/07/08 08:58:17;;;;;;;3.00;1.00;;;;;;;;;;5013074;28;20045;-91
2022/07/08 09:04:02;;;;;;;1.80;1.00;;;;;;;;;;5287709;22;20041;-91
2022/07/08 09:06:34;;;;;;;2.45;0.90;;;;;;;;;;5014977;28;20029;-91
2022/07/08 09:12:22;;;;;;;1.60;0.85;;;;;;;;;;5031566;28;20052;-91
2022/07/08 09:15:00;;;;;;;1.73;0.80;;;;;;;;;;5029860;28;20030;-90
2022/07/08 09:17:26;;;;;;;2.13;0.70;;;;;;;;;;5011341;28;20040;-88
2022/07/08 09:19:57;;;;;;;1.83;0.70;;;;;;;;;;5010211;28;20036;-89
2022/07/08 09:22:38;;;;;;;5.10;0.95;;;;;;;;;;5012376;28;20010;-90
2022/07/08 09:25:07;;;;;;;1.67;0.80;;;;;;;;;;5013493;28;20068;-91
2022/07/08 09:27:41;;;;;;;3.45;1.15;;;;;;;;;;5015645;28;20033;-90
2022/07/08 09:36:24;;;;;;;;;;;;;;;;;;;;;
2022/07/08 09:38:58;;;;;;;2.28;1.00;;;;;;;;;;5007201;28;20457;-90
2022/07/08 09:41:24;;;;;;;;;;;;;;;;;;4988881;28;20018;-90
2022/07/08 09:43:53;;;;;;;2.30;0.80;;;;;;;;;;4988915;28;19913;-92
2022/07/08 09:46:20;;;;;;;2.00;0.90;;;;;;;;;;4989104;28;20099;-91
2022/07/08 09:48:57;;;;;;;2.10;0.90;;;;;;;;;;5003169;28;20030;-91
2022/07/08 09:51:23;;;;;;;2.30;0.98;;;;;;;;;;4984162;28;20035;-92
2022/07/08 09:53:54;;;;;;;2.15;0.80;;;;;;;;;;4984028;28;20031;-89
2022/07/08 09:56:26;;;;;;;5.28;0.80;;;;;;;;;;4984761;28;20011;-89
2022/07/08 09:58:52;;;;;;;2.72;1.00;;;;;;;;;;4983413;28;20026;-91
2022/07/08 10:01:24;;;;;;;2.63;0.98;;;;;;;;;;4997605;28;20037;-90
2022/07/08 10:03:50;;;;;;;;;;;;;;;;;;5008332;28;20491;-92
2022/07/08 10:06:18;;;;;;;2.85;1.08;;;;;;;;;;5005467;28;19909;-90
2022/07/08 10:08:51;;;;;;;2.13;1.00;;;;;;;;;;5004782;28;20048;-91
2022/07/08 10:11:21;;;;;;;2.13;0.90;;;;;;;;;;5036027;28;20120;-91
2022/07/08 10:14:08;;;;;;;3.17;0.70;;;;;;;;;;5029944;28;20025;-92
2022/07/08 10:16:43;;;;;;;2.60;1.00;;;;;;;;;;4990220;28;20026;-92
2022/07/08 10:19:39;;;;;;;3.75;0.80;;;;;;;;;;5004268;28;20113;-91
2022/07/08 10:22:12;;;;;;;2.33;0.95;;;;;;;;;;4989561;28;20041;-92
2022/07/08 10:24:43;;;;;;;3.25;0.90;;;;;;;;;;5026234;28;20442;-92
2022/07/08 10:27:15;;;;;;;2.70;0.80;;;;;;;;;;4963843;28;20045;-92
2022/07/08 10:29:41;;;;;;;;;;;;;;;;;;4966439;28;20193;-92
2022/07/08 10:32:30;;;;;;;2.17;1.05;;;;;;;;;;4981820;28;19977;-93
2022/07/08 10:35:10;;;;;;;2.53;0.90;;;;;;;;;;4984175;28;20079;-92
2022/07/08 10:37:53;;;;;;;3.22;0.95;;;;;;;;;;4968842;28;20055;-93
2022/07/08 10:40:41;;;;;;;2.78;0.90;;;;;;;;;;4996797;28;20039;-90
2022/07/08 10:43:27;;;;;;;3.05;1.20;;;;;;;;;;5072703;23;20046;-91
2022/07/08 10:48:54;;;;;;;1.45;1.05;;;;;;;;;;5044930;23;20128;-92
2022/07/08 10:51:29;;;;;;;3.13;1.40;;;;;;;;;;5024687;28;20053;-93
2022/07/08 10:54:03;;;;;;;3.33;1.27;;;;;;;;;;5006633;28;20034;-92
2022/07/08 10:57:02;;;;;;;2.85;1.38;;;;;;;;;;5023805;28;20117;-91
2022/07/08 10:59:39;;;;;;;2.58;1.63;;;;;;;;;;5006233;28;20018;-92
2022/07/08 11:02:07;;;;;;;6.40;1.48;;;;;;;;;;5005751;28;20033;-91
2022/07/08 11:04:36;;;;;;;3.08;1.35;;;;;;;;;;5003746;28;20030;-92
2022/07/08 11:07:22;;;;;;;2.75;1.50;;;;;;;;;;5002891;28;20029;-92
2022/07/08 11:10:02;;;;;;;1.88;1.30;;;;;;;;;;5003776;28;20374;-92
2022/07/08 11:12:32;;;;;;;5.18;2.10;;;;;;;;;;4988101;28;20099;-92
2022/07/08 11:15:05;;;;;;;2.78;1.40;;;;;;;;;;5003292;28;20034;-92
2022/07/08 11:17:31;;;;;;;;;;;;;;;;;;5006229;28;20022;-92
2022/07/08 11:19:58;;;;;;;3.35;1.40;;;;;;;;;;5006631;28;19905;-93
2022/07/08 11:22:44;;;;;;;2.47;1.50;;;;;;;;;;5046783;28;20006;-92
2022/07/08 11:25:33;;;;;;;2.40;1.50;;;;;;;;;;5032663;28;20014;-91
2022/07/08 11:28:00;;;;;;;3.90;1.50;;;;;;;;;;5044267;28;20026;-94
2022/07/08 11:30:35;;;;;;;2.28;1.67;;;;;;;;;;5047866;28;20046;-92
2022/07/08 11:57:28;;;;;;;4.03;1.80;;;;;;;;;;4974756;28;20034;-93
2022/07/08 11:59:55;;;;;;;3.42;1.80;;;;;;;;;;4967571;28;20039;-91
2022/07/08 12:02:46;;;;;;;2.45;1.58;;;;;;;;;;4966017;28;20031;-94
2022/07/08 12:05:49;;;;;;;3.92;2.00;;;;;;;;;;4969553;28;20010;-92
2022/07/08 12:11:38;;;;;;;;;;;;;;;;;;5019988;28;20037;-89
2022/07/08 12:14:09;;;;;;;4.80;1.90;;;;;;;;;;5013289;28;19905;-88
2022/07/08 12:16:55;;;;;;;3.05;1.80;;;;;;;;;;5015333;28;20034;-90
2022/07/08 12:19:30;;;;;;;5.65;1.90;;;;;;;;;;5015056;28;20022;-88
2022/07/08 12:22:06;;;;;;;3.25;2.15;;;;;;;;;;5014991;28;20056;-89
2022/07/08 12:24:35;;;;;;;7.18;2.50;;;;;;;;;;5015673;28;20022;-89
2022/07/08 12:27:30;;;;;;;3.85;2.00;;;;;;;;;;5014613;28;20034;-90
2022/07/08 12:30:15;;;;;;;4.57;1.85;;;;;;;;;;5017442;28;20475;-90
2022/07/08 12:32:45;;;;;;;4.72;2.22;;;;;;;;;;5016446;28;20034;-89
2022/07/08 12:35:12;;;;;;;4.60;1.98;;;;;;;;;;5018681;28;20033;-92
2022/07/08 12:37:41;;;;;;;5.45;2.45;;;;;;;;;;5017309;28;20030;-89
2022/07/08 12:40:19;;;;;;;4.32;2.10;;;;;;;;;;5014613;28;20180;-91
2022/07/08 12:43:04;;;;;;;4.43;2.25;;;;;;;;;;5014712;28;20061;-89
2022/07/08 12:48:39;;;;;;;6.00;2.40;;;;;;;;;;5005459;28;20052;-90
2022/07/08 12:51:07;;;;;;;3.53;2.13;;;;;;;;;;5014200;28;20045;-90
2022/07/08 12:53:33;;;;;;;3.42;1.95;;;;;;;;;;5016899;28;20026;-90
2022/07/08 12:56:02;;;;;;;5.18;2.20;;;;;;;;;;5014202;28;20133;-90
2022/07/08 12:58:29;;;;;;;4.70;2.20;;;;;;;;;;5014312;28;20033;-89
2022/07/08 13:01:13;;;;;;;5.32;2.20;;;;;;;;;;5024806;28;20056;-91
2022/07/08 13:04:04;;;;;;;4.32;2.58;;;;;;;;;;5019789;28;20026;-90
2022/07/08 13:09:45;;;;;;;5.60;2.50;;;;;;;;;;5013052;28;20597;-89
2022/07/08 13:17:50;;;;;;;;;;;;;;;;;;5037773;28;20386;-95
2022/07/08 13:24:02;;;;;;;4.32;2.70;;;;;;;;;;5073094;23;20041;-91
2022/07/08 13:26:34;;;;;;;4.15;2.78;;;;;;;;;;5080202;28;20055;-92
2022/07/08 13:29:07;;;;;;;5.90;2.70;;;;;;;;;;5075190;28;20519;-92
2022/07/08 13:31:55;;;;;;;6.27;2.90;;;;;;;;;;5066487;28;20535;-93
2022/07/08 13:34:31;;;;;;;4.20;2.63;;;;;;;;;;5086743;28;20044;-93
2022/07/08 13:37:20;;;;;;;4.22;3.00;;;;;;;;;;5057644;28;20025;-94
2022/07/08 13:40:11;;;;;;;;;;;;;;;;;;;;;
2022/07/08 13:58:04;;;;;;;4.13;2.20;;;;;;;;;;4939330;29;20035;-94
2022/07/08 14:00:37;;;;;;;5.60;2.22;;;;;;;;;;4986877;28;20034;-93
2022/07/08 14:03:05;;;;;;;5.45;2.38;;;;;;;;;;4998646;28;20073;-91
2022/07/08 14:05:34;;;;;;;3.25;2.05;;;;;;;;;;4997855;28;20034;-92
2022/07/08 14:08:19;;;;;;;3.65;2.00;;;;;;;;;;5007202;28;20033;-92
2022/07/08 14:10:49;;;;;;;3.30;2.08;;;;;;;;;;5004379;28;20042;-94
2022/07/08 14:13:17;;;;;;;3.03;2.10;;;;;;;;;;5003648;28;20072;-90
2022/07/08 14:15:55;;;;;;;3.85;2.17;;;;;;;;;;5002986;28;20026;-92
2022/07/08 14:18:32;;;;;;;3.78;2.13;;;;;;;;;;5002733;28;20025;-94
2022/07/08 14:20:58;;;;;;;3.33;2.33;;;;;;;;;;5002778;28;20026;-92
2022/07/08 14:24:01;;;;;;;3.78;2.08;;;;;;;;;;5003584;28;20034;-91
2022/07/08 14:26:30;;;;;;;3.92;2.13;;;;;;;;;;4986794;28;20479;-90
2022/07/08 14:28:59;;;;;;;5.32;1.95;;;;;;;;;;5004417;28;20467;-94
2022/07/08 14:31:49;;;;;;;3.88;2.08;;;;;;;;;;5007632;28;20037;-93
2022/07/08 14:34:24;;;;;;;4.70;2.13;;;;;;;;;;5004559;28;20030;-93
2022/07/08 14:39:47;;;;;;;4.68;2.22;;;;;;;;;;5015610;28;20068;-91
2022/07/08 14:42:20;;;;;;;3.63;2.20;;;;;;;;;;5000611;28;20398;-93
2022/07/08 14:44:55;;;;;;;5.25;2.20;;;;;;;;;;5000630;28;20459;-93
2022/07/08 14:47:25;;;;;;;7.57;2.42;;;;;;;;;;4989045;28;20033;-93
2022/07/08 14:49:55;;;;;;;4.70;2.20;;;;;;;;;;4998742;28;20088;-92
2022/07/08 14:52:54;;;;;;;6.30;2.30;;;;;;;;;;5003957;28;20109;-92
2022/07/08 14:55:23;;;;;;;7.28;2.67;;;;;;;;;;5030774;28;20034;-92
2022/07/08 15:01:34;;;;;;;4.32;2.50;;;;;;;;;;5017240;28;20087;-93
2022/07/08 15:04:25;;;;;;;4.75;2.42;;;;;;;;;;4994166;28;20041;-95
2022/07/08 15:06:54;;;;;;;6.32;2.60;;;;;;;;;;5005473;28;20037;-93
2022/07/08 15:09:29;;;;;;;4.90;2.70;;;;;;;;;;5008242;28;20048;-93
2022/07/08 15:18:16;;;;;;;6.20;2.50;;;;;;;;;;4944600;29;20070;-93
2022/07/08 15:20:48;;;;;;;7.38;2.38;;;;;;;;;;4926050;29;20043;-91
2022/07/08 15:23:20;;;;;;;4.22;2.53;;;;;;;;;;4922050;29;20439;-92
2022/07/08 15:26:09;;;;;;;5.07;2.47;;;;;;;;;;4906671;29;20444;-93
2022/07/08 15:28:36;;;;;;;5.70;2.50;;;;;;;;;;4921490;29;20046;-92
2022/07/08 15:31:30;;;;;;;6.75;2.97;;;;;;;;;;4925918;29;20022;-94
2022/07/08 15:34:09;;;;;;;6.10;2.67;;;;;;;;;;4922308;29;20070;-91
2022/07/08 15:36:38;;;;;;;10.57;2.70;;;;;;;;;;4919835;29;20131;-92
2022/07/08 15:39:05;;;;;;;4.00;2.67;;;;;;;;;;4924229;29;20028;-93
2022/07/08 15:41:31;;;;;;;4.20;2.22;;;;;;;;;;4919807;29;20397;-93
2022/07/08 15:43:58;;;;;;;4.80;2.30;;;;;;;;;;4930979;29;20036;-92
2022/07/08 15:49:35;;;;;;;3.50;2.42;;;;;;;;;;4972298;28;20049;-92
2022/07/08 15:52:30;;;;;;;4.88;2.38;;;;;;;;;;4981353;28;20499;-93
2022/07/08 15:55:14;;;;;;;5.97;1.88;;;;;;;;;;4903048;29;20103;-95
2022/07/08 16:07:05;;;;;;;3.72;1.83;;;;;;;;;;5016723;28;20037;-93
2022/07/08 16:09:37;;;;;;;4.50;1.90;;;;;;;;;;5012397;28;20038;-92
2022/07/08 16:12:18;;;;;;;5.35;2.15;;;;;;;;;;4998433;28;20034;-95
2022/07/08 16:15:23;;;;;;;4.05;1.77;;;;;;;;;;4999215;28;20026;-95
2022/07/08 16:18:19;;;;;;;3.50;1.42;;;;;;;;;;4998343;28;20029;-94
2022/07/08 16:21:00;;;;;;;4.05;1.40;;;;;;;;;;5001960;28;20396;-93
2022/07/08 16:35:43;;;;;;;3.97;1.48;;;;;;;;;;5013308;23;20058;-93
2022/07/08 16:38:21;;;;;;;5.65;1.40;;;;;;;;;;4993907;28;20038;-94
2022/07/08 16:43:50;;;;;;;3.03;1.35;;;;;;;;;;5020512;28;20040;-93
2022/07/08 16:49:19;;;;;;;2.97;1.08;;;;;;;;;;5210720;23;20060;-95
2022/07/08 16:51:58;;;;;;;3.58;1.38;;;;;;;;;;5001751;28;20026;-92
2022/07/08 16:54:46;;;;;;;6.13;1.30;;;;;;;;;;5003827;28;20049;-94
2022/07/08 16:57:12;;;;;;;3.67;1.10;;;;;;;;;;5021963;28;20052;-77
2022/07/08 16:59:39;;;;;;;5.00;1.45;;;;;;;;;;5014362;28;20061;-79
2022/07/08 17:02:05;;;;;;;3.80;1.40;;;;;;;;;;5014762;28;20033;-80
2022/07/08 17:04:31;;;;;;;2.72;1.10;;;;;;;;;;5014652;28;20068;-80
2022/07/08 17:06:59;;;;;;;3.17;1.05;;;;;;;;;;4996577;28;20053;-79
2022/07/08 17:09:25;;;;;;;5.93;1.17;;;;;;;;;;5013680;28;20042;-79
2022/07/08 17:11:51;;;;;;;3.95;1.10;;;;;;;;;;5014892;28;20022;-77
2022/07/08 17:14:17;;;;;;;8.68;1.35;;;;;;;;;;4996571;28;20080;-78
2022/07/08 17:16:45;;;;;;;4.75;1.20;;;;;;;;;;5013527;28;20026;-79
2022/07/08 17:19:11;;;;;;;5.88;1.40;;;;;;;;;;5013685;28;20030;-76
2022/07/08 17:21:37;;;;;;;2.67;1.20;;;;;;;;;;4997286;28;20022;-75
2022/07/08 17:24:04;;;;;;;4.65;1.20;;;;;;;;;;5013547;28;20061;-80
2022/07/08 17:26:30;;;;;;;2.95;1.20;;;;;;;;;;4996499;28;20022;-80
2022/07/08 17:29:47;;;;;;;3.03;1.20;;;;;;;;;;4996538;28;20033;-80
2022/07/08 17:31:42;;;;;;;5.47;1.40;;;;;;;;;;5013951;28;20483;-79
2022/07/08 17:34:08;;;;;;;4.65;1.45;;;;;;;;;;4996542;28;20071;-80
2022/07/08 17:36:34;;;;;;;3.55;1.20;;;;;;;;;;4996659;28;20395;-79
2022/07/08 17:39:01;;;;;;;5.03;1.20;;;;;;;;;;4996370;28;20029;-80
2022/07/08 17:41:27;;;;;;;3.10;1.02;;;;;;;;;;5016056;28;20057;-79
2022/07/08 17:43:57;;;;;;;5.03;1.10;;;;;;;;;;5018333;28;20097;-80
2022/07/08 17:46:23;;;;;;;2.70;1.00;;;;;;;;;;5000837;28;20126;-80
2022/07/08 17:48:49;;;;;;;2.78;1.00;;;;;;;;;;4996494;28;20061;-80
2022/07/08 17:51:16;;;;;;;1.77;1.13;;;;;;;;;;4996333;28;20018;-80
2022/07/08 17:53:42;;;;;;;2.72;1.30;;;;;;;;;;4998486;28;20105;-77
2022/07/08 17:56:08;;;;;;;3.85;1.40;;;;;;;;;;4996751;28;20118;-77
2022/07/08 17:58:37;;;;;;;3.03;1.65;;;;;;;;;;4996379;28;20035;-80
2022/07/08 18:01:03;;;;;;;3.30;1.60;;;;;;;;;;4996724;28;20394;-80
2022/07/08 18:03:29;;;;;;;5.32;1.70;;;;;;;;;;4996865;28;20491;-78
2022/07/08 18:05:55;;;;;;;5.15;1.67;;;;;;;;;;4997948;28;20034;-77
2022/07/08 18:08:24;;;;;;;2.72;1.33;;;;;;;;;;4996871;28;20026;-77
2022/07/08 18:10:52;;;;;;;4.18;1.40;;;;;;;;;;4996632;28;20034;-80
2022/07/08 18:13:19;;;;;;;5.85;1.75;;;;;;;;;;4996814;28;20018;-75
2022/07/08 18:15:45;;;;;;;3.08;1.30;;;;;;;;;;4997855;28;20034;-80
2022/07/08 18:18:12;;;;;;;2.53;1.55;;;;;;;;;;4997789;28;20026;-78
2022/07/08 18:20:38;;;;;;;3.22;1.83;;;;;;;;;;4996470;28;20030;-80
2022/07/08 18:23:04;;;;;;;4.93;1.88;;;;;;;;;;4995850;28;20041;-80